createdAt,value
2019-04-01T00:01:24.747Z,13.25
2019-04-01T00:04:17.158Z,16.73
2019-04-01T00:07:06.117Z,15.23
2019-04-01T00:09:43.929Z,17.23
2019-04-01T00:12:19.868Z,13.48
2019-04-01T00:15:03.285Z,13.75
2019-04-01T00:17:51.557Z,19.23
2019-04-01T00:20:26.928Z,17.87
2019-04-01T00:23:07.898Z,18.77
2019-04-01T00:25:42.299Z,57.88
2019-04-01T00:28:16.411Z,21.07
2019-04-01T00:30:50.762Z,26.97
2019-04-01T00:33:25.142Z,18.98
2019-04-01T00:36:00.888Z,15.70
2019-04-01T00:38:37.199Z,20.02
2019-04-01T00:41:17.027Z,23.50
2019-04-01T00:43:54.820Z,31.37
2019-04-01T00:46:29.615Z,33.10
2019-04-01T00:49:18.725Z,20.40
2019-04-01T00:51:52.502Z,19.00
2019-04-01T00:54:42.674Z,16.93
2019-04-01T00:57:18.196Z,19.32
2019-04-01T00:59:55.263Z,18.15
2019-04-01T01:02:33.457Z,20.27
2019-04-01T01:05:08.706Z,16.10
2019-04-01T01:10:37.921Z,20.82
2019-04-01T01:13:23.138Z,22.58
2019-04-01T01:15:52.370Z,21.57
2019-04-01T01:18:31.188Z,16.17
2019-04-01T01:24:06.183Z,22.40
2019-04-01T01:26:51.495Z,22.10
2019-04-01T01:29:36.300Z,18.20
2019-04-01T01:35:01.704Z,23.22
2019-04-01T01:37:39.586Z,20.48
2019-04-01T01:40:14.088Z,20.30
2019-04-01T01:42:51.152Z,21.27
2019-04-01T01:45:26.920Z,23.65
2019-04-01T01:50:58.742Z,16.75
2019-04-01T01:56:38.014Z,20.70
2019-04-01T01:59:12.015Z,19.57
2019-04-01T02:01:51.541Z,18.52
2019-04-01T02:04:40.699Z,16.95
2019-04-01T02:07:20.307Z,21.55
2019-04-01T02:09:53.726Z,47.38
2019-04-01T02:12:28.546Z,27.22
2019-04-01T02:15:06.715Z,17.42
2019-04-01T02:17:41.905Z,17.15
2019-04-01T02:23:26.044Z,18.32
2019-04-01T02:26:02.173Z,19.92
2019-04-01T02:28:36.379Z,17.50
2019-04-01T02:31:11.908Z,19.07
2019-04-01T02:33:52.547Z,20.10
2019-04-01T02:39:20.559Z,20.83
2019-04-01T02:42:30.241Z,22.05
2019-04-01T02:44:35.718Z,24.90
2019-04-01T02:47:09.992Z,22.48
2019-04-01T02:49:51.722Z,19.42
2019-04-01T02:52:28.391Z,21.00
2019-04-01T02:55:06.735Z,25.08
2019-04-01T02:57:39.673Z,23.57
2019-04-01T03:02:46.796Z,20.12
2019-04-01T03:05:24.144Z,21.52
2019-04-01T03:08:01.392Z,23.80
2019-04-01T03:10:35.239Z,19.62
2019-04-01T03:13:12.638Z,25.77
2019-04-01T03:15:58.565Z,26.70
2019-04-01T03:18:33.833Z,23.27
2019-04-01T03:21:10.424Z,23.38
2019-04-01T03:23:46.118Z,23.25
2019-04-01T03:26:20.141Z,20.57
2019-04-01T03:31:26.699Z,23.70
2019-04-01T03:34:02.090Z,20.72
2019-04-01T03:36:36.329Z,24.37
2019-04-01T03:39:18.912Z,26.48
2019-04-01T03:41:53.316Z,26.05
2019-04-01T03:44:27.706Z,25.35
2019-04-01T03:47:05.356Z,24.23
2019-04-01T03:49:44.804Z,29.05
2019-04-01T03:52:22.261Z,25.60
2019-04-01T03:55:05.808Z,26.77
2019-04-01T03:57:35.074Z,21.77
2019-04-01T04:00:19.671Z,22.60
2019-04-01T04:03:01.364Z,22.02
2019-04-01T04:05:35.184Z,25.20
2019-04-01T04:08:10.328Z,25.82
2019-04-01T04:10:47.955Z,22.93
2019-04-01T04:13:26.782Z,27.32
2019-04-01T04:16:04.225Z,27.65
2019-04-01T04:18:40.336Z,29.40
2019-04-01T04:24:05.910Z,26.10
2019-04-01T04:26:41.800Z,29.20
2019-04-01T04:29:20.335Z,26.52
2019-04-01T04:31:56.579Z,28.42
2019-04-01T04:34:42.858Z,27.58
2019-04-01T04:37:19.314Z,27.82
2019-04-01T04:40:08.753Z,28.00
2019-04-01T04:42:34.213Z,26.07
2019-04-01T04:45:11.664Z,28.38
2019-04-01T04:47:49.765Z,30.37
2019-04-01T04:50:24.009Z,25.75
2019-04-01T04:52:59.713Z,29.63
2019-04-01T04:55:33.675Z,26.50
2019-04-01T05:00:45.119Z,22.42
2019-04-01T05:03:21.626Z,25.20
2019-04-01T05:05:55.869Z,26.35
2019-04-01T05:08:34.898Z,32.25
2019-04-01T05:11:09.535Z,26.57
2019-04-01T05:13:49.765Z,23.30
2019-04-01T05:19:19.654Z,29.98
2019-04-01T05:22:04.035Z,33.98
2019-04-01T05:27:13.843Z,24.10
2019-04-01T05:29:51.166Z,29.52
2019-04-01T05:32:31.444Z,27.22
2019-04-01T05:35:05.100Z,28.27
2019-04-01T05:37:40.638Z,29.48
2019-04-01T05:40:20.082Z,25.62
2019-04-01T05:42:56.837Z,23.40
2019-04-01T05:45:44.089Z,25.32
2019-04-01T05:51:13.151Z,23.85
2019-04-01T05:53:47.666Z,31.07
2019-04-01T05:56:23.259Z,28.30
2019-04-01T06:05:03.101Z,27.27
2019-04-01T06:07:39.645Z,30.48
2019-04-01T06:10:14.053Z,27.55
2019-04-01T06:12:57.605Z,35.13
2019-04-01T06:15:34.736Z,26.77
2019-04-01T06:24:24.828Z,31.75
2019-04-01T06:33:13.401Z,25.85
2019-04-01T06:55:26.280Z,25.68
2019-04-01T06:58:01.073Z,28.40
2019-04-01T07:04:00.684Z,31.45
2019-04-01T07:09:43.000Z,26.90
2019-04-01T07:15:58.282Z,30.77
2019-04-01T07:31:09.989Z,29.35
2019-04-01T07:37:10.921Z,31.40
2019-04-01T07:39:36.044Z,32.93
2019-04-01T07:45:08.905Z,39.60
2019-04-01T07:51:12.458Z,34.60
2019-04-01T07:54:20.201Z,25.08
2019-04-01T08:06:15.593Z,33.58
2019-04-01T08:15:05.966Z,36.23
2019-04-01T08:17:40.232Z,36.58
2019-04-01T08:20:14.061Z,37.10
2019-04-01T08:22:59.552Z,34.65
2019-04-01T08:25:50.334Z,36.20
2019-04-01T08:31:51.273Z,36.00
2019-04-01T08:34:58.967Z,34.40
2019-04-01T08:40:40.081Z,39.18
2019-04-01T08:49:10.014Z,35.90
2019-04-01T08:51:44.073Z,46.68
2019-04-01T09:06:13.821Z,42.35
2019-04-01T09:08:54.377Z,44.05
2019-04-01T09:11:28.457Z,44.08
2019-04-01T09:14:19.714Z,43.15
2019-04-01T09:20:04.293Z,46.00
2019-04-01T09:26:03.093Z,46.37
2019-04-01T09:37:45.433Z,37.28
2019-04-01T09:40:19.376Z,37.58
2019-04-01T09:49:24.533Z,39.60
2019-04-01T09:58:52.178Z,38.40
2019-04-01T10:01:25.599Z,39.55
2019-04-01T10:04:00.347Z,36.77
2019-04-01T10:06:34.302Z,36.08
2019-04-01T10:09:25.951Z,41.77
2019-04-01T10:15:59.951Z,34.92
2019-04-01T10:21:24.866Z,40.98
2019-04-01T10:36:29.485Z,40.92
2019-04-01T10:39:02.931Z,36.73
2019-04-01T10:45:04.378Z,39.08
2019-04-01T10:47:55.413Z,41.15
2019-04-01T11:09:16.825Z,48.38
2019-04-01T11:11:51.543Z,45.75
2019-04-01T11:14:25.969Z,43.90
2019-04-01T11:27:16.063Z,38.55
2019-04-01T11:30:08.101Z,38.40
2019-04-01T11:32:42.812Z,45.03
2019-04-01T11:38:07.055Z,41.55
2019-04-01T11:41:25.309Z,107.78
2019-04-01T11:44:36.837Z,44.00
2019-04-01T11:46:48.669Z,48.15
2019-04-01T11:49:23.430Z,38.23
2019-04-01T11:52:04.606Z,37.58
2019-04-01T11:54:45.495Z,36.35
2019-04-01T11:57:38.288Z,34.35
2019-04-01T11:59:59.248Z,37.00
2019-04-01T12:02:39.044Z,37.98
2019-04-01T12:05:16.829Z,34.67
2019-04-01T12:08:07.563Z,39.77
2019-04-01T12:13:43.782Z,37.38
2019-04-01T12:16:33.532Z,41.20
2019-04-01T12:19:02.543Z,49.60
2019-04-01T12:24:42.375Z,36.77
2019-04-01T12:30:24.855Z,37.42
2019-04-01T12:36:03.460Z,43.35
2019-04-01T12:38:46.478Z,36.40
2019-04-01T12:47:14.599Z,51.25
2019-04-01T12:49:57.498Z,42.10
2019-04-01T12:52:52.691Z,41.53
2019-04-01T12:55:24.464Z,37.93
2019-04-01T13:00:56.630Z,44.65
2019-04-01T13:03:41.857Z,47.43
2019-04-01T13:06:40.693Z,46.58
2019-04-01T13:12:27.094Z,42.23
2019-04-01T13:15:08.310Z,39.55
2019-04-01T13:18:03.283Z,44.80
2019-04-01T13:23:44.599Z,44.25
2019-04-01T13:26:34.084Z,44.40
2019-04-01T13:29:25.924Z,100.53
2019-04-01T13:32:04.523Z,117.62
2019-04-01T13:34:59.308Z,70.08
2019-04-01T13:37:31.283Z,117.13
2019-04-01T13:41:41.757Z,100.02
2019-04-01T14:08:05.835Z,129.93
2019-04-01T14:23:26.369Z,93.82
2019-04-01T14:48:09.706Z,52.58
2019-04-01T16:00:38.738Z,49.35
2019-04-01T16:15:38.296Z,50.92
2019-04-01T16:18:17.438Z,48.28
2019-04-01T16:36:56.564Z,52.38
2019-04-01T16:46:00.437Z,54.95
2019-04-01T17:03:39.584Z,50.00
2019-04-01T17:06:11.854Z,50.67
2019-04-01T17:09:00.741Z,49.13
2019-04-01T17:12:12.836Z,53.17
2019-04-01T17:15:03.325Z,52.03
2019-04-01T17:17:47.083Z,52.20
2019-04-01T17:23:16.951Z,51.10
2019-04-01T17:25:52.379Z,52.05
2019-04-01T17:28:29.854Z,46.13
2019-04-01T17:31:06.174Z,54.77
2019-04-01T17:33:54.522Z,48.68
2019-04-01T17:36:30.103Z,49.73
2019-04-01T17:39:12.217Z,51.48
2019-04-01T17:41:42.827Z,48.25
2019-04-01T17:47:19.322Z,50.80
2019-04-01T17:49:53.429Z,53.20
2019-04-01T17:52:32.081Z,54.38
2019-04-01T17:55:09.420Z,47.73
2019-04-01T17:57:46.701Z,46.68
2019-04-01T18:00:24.804Z,52.48
2019-04-01T18:03:00.286Z,49.50
2019-04-01T18:05:34.408Z,45.28
2019-04-01T18:08:08.247Z,53.38
2019-04-01T18:10:42.605Z,54.50
2019-04-01T18:13:16.792Z,51.30
2019-04-01T18:15:57.034Z,46.98
2019-04-01T18:18:28.854Z,57.62
2019-04-01T18:21:09.488Z,58.52
2019-04-01T18:23:41.788Z,45.98
2019-04-01T18:26:15.939Z,53.13
2019-04-01T18:31:28.099Z,47.03
2019-04-01T18:34:01.889Z,52.40
2019-04-01T18:36:43.501Z,51.73
2019-04-01T18:39:15.253Z,46.13
2019-04-01T18:41:47.312Z,48.63
2019-04-01T18:44:21.194Z,45.78
2019-04-01T18:46:59.040Z,41.58
2019-04-01T18:49:33.374Z,44.67
2019-04-01T18:52:08.334Z,47.78
2019-04-01T18:54:45.855Z,44.83
2019-04-01T18:57:20.383Z,46.13
2019-04-01T18:59:57.073Z,40.60
2019-04-01T19:02:30.776Z,42.10
2019-04-01T19:05:10.507Z,39.75
2019-04-01T19:07:43.540Z,42.58
2019-04-01T19:10:19.636Z,38.85
2019-04-01T19:13:05.894Z,38.30
2019-04-01T19:15:36.831Z,40.25
2019-04-01T19:18:11.296Z,38.95
2019-04-01T19:20:56.295Z,39.10
2019-04-01T19:23:24.663Z,42.60
2019-04-01T19:25:58.907Z,39.90
2019-04-01T19:28:32.733Z,44.50
2019-04-01T19:33:39.263Z,45.38
2019-04-01T19:36:15.385Z,40.38
2019-04-01T19:38:54.308Z,42.70
2019-04-01T19:41:27.923Z,42.98
2019-04-01T19:46:33.791Z,36.35
2019-04-01T19:49:07.617Z,39.03
2019-04-01T19:51:41.479Z,41.63
2019-04-01T19:54:15.170Z,38.75
2019-04-01T19:59:25.999Z,41.25
2019-04-01T20:01:59.508Z,42.60
2019-04-01T20:04:34.123Z,39.98
2019-04-01T20:07:07.982Z,41.00
2019-04-01T20:09:41.659Z,40.80
2019-04-01T20:12:15.850Z,37.48
2019-04-01T20:14:49.587Z,38.50
2019-04-01T20:17:23.557Z,39.78
2019-04-01T20:19:57.767Z,41.65
2019-04-01T20:22:31.688Z,42.75
2019-04-01T20:27:38.717Z,37.50
2019-04-01T20:30:12.369Z,37.58
2019-04-01T20:32:49.136Z,36.20
2019-04-01T20:35:28.969Z,39.20
2019-04-01T20:38:02.754Z,36.77
2019-04-01T20:40:37.506Z,41.18
2019-04-01T20:43:11.552Z,38.17
2019-04-01T20:48:17.752Z,37.25
2019-04-01T20:53:23.678Z,40.92
2019-04-01T20:55:57.468Z,38.53
2019-04-01T20:58:31.269Z,39.98
2019-04-01T21:01:06.258Z,39.40
2019-04-01T21:03:40.475Z,42.83
2019-04-01T21:06:14.593Z,36.95
2019-04-01T21:08:48.440Z,41.83
2019-04-01T21:11:22.393Z,42.20
2019-04-01T21:13:56.199Z,36.42
2019-04-01T21:16:31.120Z,39.15
2019-04-01T21:19:05.108Z,35.95
2019-04-01T21:21:41.956Z,37.25
2019-04-01T21:24:18.697Z,35.20
2019-04-01T21:26:52.900Z,35.20
2019-04-01T21:29:28.964Z,39.58
2019-04-01T21:32:03.428Z,35.55
2019-04-01T21:34:37.378Z,36.38
2019-04-01T21:39:43.464Z,40.33
2019-04-01T21:42:17.514Z,35.75
2019-04-01T21:44:51.407Z,36.40
2019-04-01T21:47:25.254Z,39.35
2019-04-01T21:49:59.070Z,41.63
2019-04-01T21:52:34.846Z,35.08
2019-04-01T21:55:08.594Z,39.60
2019-04-01T21:57:43.446Z,36.63
2019-04-01T22:00:20.596Z,42.50
2019-04-01T22:02:58.533Z,34.43
2019-04-01T22:05:32.925Z,38.70
2019-04-01T22:08:07.214Z,39.20
2019-04-01T22:10:43.546Z,39.73
2019-04-01T22:13:18.433Z,35.15
2019-04-01T22:15:53.399Z,31.70
2019-04-01T22:18:27.551Z,38.30
2019-04-01T22:21:04.786Z,37.33
2019-04-01T22:23:41.574Z,37.00
2019-04-01T22:26:14.590Z,35.68
2019-04-01T22:28:50.184Z,37.05
2019-04-01T22:31:26.976Z,37.08
2019-04-01T22:34:06.582Z,35.58
2019-04-01T22:36:40.398Z,37.80
2019-04-01T22:39:26.282Z,32.90
2019-04-01T22:41:50.079Z,37.55
2019-04-01T22:44:26.919Z,33.53
2019-04-01T22:47:00.437Z,29.85
2019-04-01T22:52:10.724Z,35.17
2019-04-01T22:54:45.428Z,35.92
2019-04-01T22:57:20.633Z,35.48
2019-04-01T23:00:03.058Z,35.05
2019-04-01T23:02:42.238Z,33.90
2019-04-01T23:05:22.410Z,32.42
2019-04-01T23:07:56.988Z,31.35
2019-04-01T23:10:31.867Z,35.92
2019-04-01T23:13:09.885Z,36.40
2019-04-01T23:15:57.897Z,33.10
2019-04-01T23:18:25.605Z,31.97
2019-04-01T23:20:59.428Z,31.50
2019-04-01T23:26:13.569Z,34.58
2019-04-01T23:28:53.139Z,33.42
2019-04-01T23:31:24.197Z,34.18
2019-04-01T23:34:01.101Z,30.17
2019-04-01T23:36:37.987Z,31.30
2019-04-01T23:39:11.453Z,36.13
2019-04-01T23:41:47.343Z,35.25
2019-04-01T23:44:23.840Z,38.75
2019-04-01T23:46:58.717Z,36.88
2019-04-01T23:49:34.844Z,33.58
2019-04-01T23:52:08.649Z,34.43
2019-04-01T23:57:18.152Z,35.52
2019-04-01T23:59:55.579Z,38.70
